Time;durP1;ratioP1;P1;durP2;ratioP2;P2;SDS_P1;SDS_P2;PMS_P1;PMS_P2;Temp;Humidity;BMP_temperature;BMP_pressure;BME280_temperature;BME280_humidity;BME280_pressure;Samples;Min_cycle;Max_cycle;Signal;HPM_P1;HPM_P2
2024/01/14 00:00:33;;;;;;;35.43;18.60;;;;;;;;;;4998990;28;20323;-79
2024/01/14 00:02:59;;;;;;;37.13;19.83;;;;;;;;;;5003082;28;20186;-79
2024/01/14 00:05:26;;;;;;;38.40;20.30;;;;;;;;;;4985944;28;20191;-79
2024/01/14 00:07:56;;;;;;;37.20;18.77;;;;;;;;;;5025082;28;20186;-79
2024/01/14 00:10:22;;;;;;;37.40;18.83;;;;;;;;;;5033501;28;20198;-79
2024/01/14 00:12:48;;;;;;;37.03;19.37;;;;;;;;;;5009463;28;20217;-80
2024/01/14 00:15:17;;;;;;;36.97;19.77;;;;;;;;;;5007649;28;20193;-80
2024/01/14 00:17:44;;;;;;;38.70;19.60;;;;;;;;;;5003923;28;20211;-79
2024/01/14 00:20:10;;;;;;;34.63;18.40;;;;;;;;;;4965827;28;20293;-79
2024/01/14 00:22:36;;;;;;;37.67;19.00;;;;;;;;;;5027587;28;20178;-79
2024/01/14 00:25:02;;;;;;;40.63;19.63;;;;;;;;;;5008458;28;20820;-80
2024/01/14 00:27:28;;;;;;;35.07;18.57;;;;;;;;;;5009977;28;20277;-83
2024/01/14 00:29:57;;;;;;;39.77;20.27;;;;;;;;;;5008894;28;20741;-79
2024/01/14 00:32:23;;;;;;;34.23;18.17;;;;;;;;;;5030253;28;20210;-80
2024/01/14 00:34:50;;;;;;;36.60;19.03;;;;;;;;;;5010538;28;20535;-81
2024/01/14 00:37:16;;;;;;;34.87;19.10;;;;;;;;;;5025213;28;20214;-80
2024/01/14 00:39:42;;;;;;;40.83;20.00;;;;;;;;;;5004663;28;20260;-80
2024/01/14 00:42:08;;;;;;;37.30;18.70;;;;;;;;;;5010952;28;20593;-80
2024/01/14 00:44:34;;;;;;;39.10;19.27;;;;;;;;;;5026370;28;20195;-79
2024/01/14 00:47:01;;;;;;;38.13;19.33;;;;;;;;;;5011264;28;20190;-79
2024/01/14 00:49:27;;;;;;;42.53;21.17;;;;;;;;;;5026299;28;20619;-80
2024/01/14 00:51:53;;;;;;;40.93;19.70;;;;;;;;;;5023515;28;20783;-79
2024/01/14 00:54:19;;;;;;;38.90;19.30;;;;;;;;;;5022404;28;20254;-80
2024/01/14 00:56:46;;;;;;;38.57;19.13;;;;;;;;;;5026786;28;20194;-81
2024/01/14 00:59:12;;;;;;;38.50;19.10;;;;;;;;;;5005274;28;20202;-80
2024/01/14 01:01:38;;;;;;;36.53;18.53;;;;;;;;;;5022863;28;20190;-79
2024/01/14 01:04:04;;;;;;;39.97;20.07;;;;;;;;;;5022015;28;20574;-80
2024/01/14 01:06:30;;;;;;;38.13;20.27;;;;;;;;;;5025698;28;20187;-80
2024/01/14 01:08:56;;;;;;;41.77;18.93;;;;;;;;;;5023557;28;20182;-79
2024/01/14 01:11:22;;;;;;;37.17;19.37;;;;;;;;;;5025935;28;20187;-79
2024/01/14 01:13:48;;;;;;;39.00;20.17;;;;;;;;;;5023127;28;20214;-79
2024/01/14 01:16:15;;;;;;;38.97;19.93;;;;;;;;;;4998777;28;20523;-79
2024/01/14 01:18:41;;;;;;;40.40;19.40;;;;;;;;;;5024809;28;20217;-81
2024/01/14 01:21:07;;;;;;;39.83;20.13;;;;;;;;;;5025931;28;20293;-79
2024/01/14 01:23:33;;;;;;;38.80;20.70;;;;;;;;;;5023074;28;20293;-79
2024/01/14 01:26:00;;;;;;;45.10;21.07;;;;;;;;;;5021582;28;20265;-80
2024/01/14 01:28:26;;;;;;;43.03;23.08;;;;;;;;;;5025738;28;20437;-80
2024/01/14 01:30:52;;;;;;;41.37;21.17;;;;;;;;;;5022185;28;20183;-80
2024/01/14 01:33:18;;;;;;;40.67;21.67;;;;;;;;;;5018420;28;20203;-79
2024/01/14 01:35:44;;;;;;;39.83;19.70;;;;;;;;;;5026838;28;20186;-79
2024/01/14 01:38:10;;;;;;;41.17;21.17;;;;;;;;;;5022784;28;20218;-79
2024/01/14 01:40:37;;;;;;;42.73;21.40;;;;;;;;;;5025927;28;20328;-79
2024/01/14 01:43:03;;;;;;;40.73;20.43;;;;;;;;;;5018163;28;20574;-79
2024/01/14 01:45:29;;;;;;;43.70;21.37;;;;;;;;;;5027133;28;20192;-79
2024/01/14 01:47:56;;;;;;;43.07;20.10;;;;;;;;;;5028686;28;20533;-79
2024/01/14 01:50:22;;;;;;;38.63;19.33;;;;;;;;;;4987876;28;20210;-82
2024/01/14 01:52:48;;;;;;;42.10;20.17;;;;;;;;;;5022098;28;20202;-80
2024/01/14 01:55:15;;;;;;;43.27;20.60;;;;;;;;;;5031364;28;20233;-80
2024/01/14 01:57:41;;;;;;;41.97;20.17;;;;;;;;;;5029169;28;20183;-79
2024/01/14 02:00:08;;;;;;;45.17;20.37;;;;;;;;;;5017920;28;20282;-79
2024/01/14 02:02:41;;;;;;;39.97;20.13;;;;;;;;;;5009548;28;20186;-79
2024/01/14 02:05:07;;;;;;;41.17;19.23;;;;;;;;;;5025356;28;20206;-79
2024/01/14 02:07:34;;;;;;;42.13;19.77;;;;;;;;;;5007564;28;20188;-79
2024/01/14 02:10:00;;;;;;;40.93;20.60;;;;;;;;;;5020700;28;20186;-79
2024/01/14 02:12:26;;;;;;;44.03;19.03;;;;;;;;;;5030350;28;20189;-79
2024/01/14 02:14:52;;;;;;;43.53;20.90;;;;;;;;;;5029762;28;20305;-79
2024/01/14 02:17:18;;;;;;;42.00;20.57;;;;;;;;;;5028536;28;20179;-79
2024/01/14 02:19:45;;;;;;;48.30;20.63;;;;;;;;;;5023680;28;20210;-79
2024/01/14 02:22:16;;;;;;;42.23;20.23;;;;;;;;;;5027804;28;20179;-80
2024/01/14 02:24:42;;;;;;;42.00;20.67;;;;;;;;;;5021357;28;20207;-79
2024/01/14 02:27:09;;;;;;;42.67;20.67;;;;;;;;;;4986695;28;20203;-80
2024/01/14 02:29:36;;;;;;;41.47;19.30;;;;;;;;;;5028895;28;20209;-79
2024/01/14 02:32:02;;;;;;;39.63;19.30;;;;;;;;;;5026736;28;20197;-79
2024/01/14 02:34:28;;;;;;;43.20;20.57;;;;;;;;;;5029760;28;20207;-80
2024/01/14 02:36:55;;;;;;;44.27;21.37;;;;;;;;;;5026817;28;20194;-79
2024/01/14 02:39:21;;;;;;;41.90;20.37;;;;;;;;;;5026740;28;20285;-79
2024/01/14 02:41:47;;;;;;;40.63;19.67;;;;;;;;;;5022897;28;20247;-81
2024/01/14 02:44:13;;;;;;;40.50;19.73;;;;;;;;;;5030553;28;20211;-80
2024/01/14 02:46:41;;;;;;;45.53;20.53;;;;;;;;;;5030546;28;20186;-79
2024/01/14 02:49:07;;;;;;;42.60;19.63;;;;;;;;;;5010150;28;20194;-79
2024/01/14 02:51:33;;;;;;;45.77;20.33;;;;;;;;;;5010728;28;20218;-79
2024/01/14 02:54:02;;;;;;;46.13;21.00;;;;;;;;;;5027430;28;20211;-79
2024/01/14 02:56:29;;;;;;;48.07;21.87;;;;;;;;;;5008526;28;20187;-79
2024/01/14 02:58:55;;;;;;;45.23;21.83;;;;;;;;;;4964911;28;20546;-79
2024/01/14 03:01:21;;;;;;;43.63;20.60;;;;;;;;;;5009640;28;20211;-79
2024/01/14 03:03:47;;;;;;;43.53;20.13;;;;;;;;;;5026954;28;20268;-79
2024/01/14 03:06:14;;;;;;;45.50;20.93;;;;;;;;;;5014745;28;20195;-79
2024/01/14 03:08:40;;;;;;;46.77;21.73;;;;;;;;;;5021952;28;20233;-80
2024/01/14 03:11:06;;;;;;;43.13;19.23;;;;;;;;;;5022009;28;20182;-80
2024/01/14 03:13:32;;;;;;;45.30;20.63;;;;;;;;;;5026013;28;20571;-79
2024/01/14 03:15:58;;;;;;;43.57;18.50;;;;;;;;;;5027512;28;20191;-79
2024/01/14 03:18:25;;;;;;;43.77;19.43;;;;;;;;;;5024048;28;20207;-79
2024/01/14 03:20:52;;;;;;;42.13;19.33;;;;;;;;;;5028380;28;20669;-80
2024/01/14 03:23:18;;;;;;;41.90;19.67;;;;;;;;;;5027736;28;20207;-81
2024/01/14 03:25:44;;;;;;;44.93;20.63;;;;;;;;;;5027234;28;20610;-80
2024/01/14 03:28:10;;;;;;;42.07;19.60;;;;;;;;;;5024675;28;20554;-80
2024/01/14 03:30:36;;;;;;;47.03;20.47;;;;;;;;;;4975122;28;20273;-81
2024/01/14 03:33:02;;;;;;;45.23;20.90;;;;;;;;;;5027080;28;20183;-79
2024/01/14 03:35:28;;;;;;;44.20;21.47;;;;;;;;;;5030203;28;20179;-79
2024/01/14 03:37:54;;;;;;;39.70;19.30;;;;;;;;;;5028842;28;20581;-79
2024/01/14 03:40:21;;;;;;;44.10;19.87;;;;;;;;;;4992349;28;20715;-79
2024/01/14 03:42:47;;;;;;;40.40;19.77;;;;;;;;;;5029054;28;20175;-79
2024/01/14 03:45:13;;;;;;;45.07;20.63;;;;;;;;;;5025922;28;20310;-79
2024/01/14 03:47:39;;;;;;;42.70;20.07;;;;;;;;;;5010932;28;20270;-79
2024/01/14 03:50:05;;;;;;;46.23;20.60;;;;;;;;;;5024819;28;20651;-79
2024/01/14 03:52:31;;;;;;;43.43;20.47;;;;;;;;;;5027827;28;20901;-79
2024/01/14 03:54:57;;;;;;;47.23;20.80;;;;;;;;;;5022438;28;20198;-79
2024/01/14 03:57:24;;;;;;;42.37;19.40;;;;;;;;;;5007550;28;20195;-79
2024/01/14 03:59:50;;;;;;;48.93;21.77;;;;;;;;;;5026288;28;20233;-79
2024/01/14 04:02:16;;;;;;;47.10;21.70;;;;;;;;;;5022332;28;20179;-79
2024/01/14 04:04:42;;;;;;;50.77;22.50;;;;;;;;;;5022410;28;20300;-79
2024/01/14 04:07:09;;;;;;;44.93;20.83;;;;;;;;;;5027601;28;20329;-79
2024/01/14 04:09:35;;;;;;;46.47;21.10;;;;;;;;;;5027347;28;20235;-79
2024/01/14 04:12:01;;;;;;;44.20;20.90;;;;;;;;;;5004260;28;20554;-79
2024/01/14 04:14:28;;;;;;;47.90;21.63;;;;;;;;;;5027362;28;20207;-79
2024/01/14 04:16:54;;;;;;;46.07;21.63;;;;;;;;;;5026152;28;20214;-81
2024/01/14 04:19:20;;;;;;;46.10;21.60;;;;;;;;;;5022594;28;20215;-79
2024/01/14 04:21:46;;;;;;;45.13;20.67;;;;;;;;;;5021955;28;20557;-79
2024/01/14 04:24:12;;;;;;;43.77;20.73;;;;;;;;;;5028466;28;20207;-79
2024/01/14 04:26:38;;;;;;;47.53;21.73;;;;;;;;;;5024800;28;20642;-79
2024/01/14 04:29:05;;;;;;;41.97;20.83;;;;;;;;;;5021671;28;20232;-78
2024/01/14 04:31:31;;;;;;;45.20;20.53;;;;;;;;;;5019790;28;20195;-80
2024/01/14 04:33:59;;;;;;;44.60;21.27;;;;;;;;;;5019835;28;20317;-79
2024/01/14 04:36:26;;;;;;;45.47;21.17;;;;;;;;;;5028802;28;20229;-78
2024/01/14 04:38:52;;;;;;;51.80;21.80;;;;;;;;;;5025394;28;20297;-80
2024/01/14 04:41:18;;;;;;;44.17;20.97;;;;;;;;;;5021159;28;20186;-78
2024/01/14 04:43:44;;;;;;;48.97;21.60;;;;;;;;;;5023106;28;20264;-78
2024/01/14 04:46:11;;;;;;;47.23;21.37;;;;;;;;;;5027405;28;20273;-78
2024/01/14 04:48:37;;;;;;;47.63;21.00;;;;;;;;;;5008945;28;20381;-79
2024/01/14 04:51:03;;;;;;;47.50;20.93;;;;;;;;;;5021618;28;20198;-79
2024/01/14 04:53:29;;;;;;;43.30;21.20;;;;;;;;;;5023518;28;20229;-78
2024/01/14 04:55:55;;;;;;;44.30;20.90;;;;;;;;;;5026281;28;21366;-79
2024/01/14 04:58:21;;;;;;;46.67;20.03;;;;;;;;;;5020861;28;20264;-79
2024/01/14 05:00:47;;;;;;;48.07;21.63;;;;;;;;;;5004847;28;20289;-79
2024/01/14 05:03:14;;;;;;;48.23;21.80;;;;;;;;;;5009724;28;20212;-79
2024/01/14 05:05:40;;;;;;;49.33;23.00;;;;;;;;;;4993679;28;20364;-79
2024/01/14 05:08:06;;;;;;;51.90;23.70;;;;;;;;;;5026920;28;20186;-79
2024/01/14 05:10:32;;;;;;;51.30;22.37;;;;;;;;;;5022579;28;20187;-78
2024/01/14 05:12:58;;;;;;;49.73;23.03;;;;;;;;;;5023030;28;20186;-78
2024/01/14 05:15:24;;;;;;;54.13;22.93;;;;;;;;;;5009360;28;20290;-78
2024/01/14 05:17:50;;;;;;;51.93;23.00;;;;;;;;;;5026379;28;20240;-78
2024/01/14 05:20:17;;;;;;;55.83;23.33;;;;;;;;;;5006573;28;20267;-78
2024/01/14 05:22:43;;;;;;;50.00;23.33;;;;;;;;;;5025823;28;20499;-78
2024/01/14 05:25:09;;;;;;;50.23;22.37;;;;;;;;;;5026618;28;20284;-78
2024/01/14 05:27:35;;;;;;;50.10;22.97;;;;;;;;;;4976767;28;20536;-78
2024/01/14 05:30:03;;;;;;;54.03;24.37;;;;;;;;;;5025461;28;20186;-78
2024/01/14 05:32:29;;;;;;;48.93;22.47;;;;;;;;;;5026005;28;20182;-78
2024/01/14 05:34:56;;;;;;;48.70;21.87;;;;;;;;;;5025863;28;20537;-78
2024/01/14 05:37:22;;;;;;;47.77;22.43;;;;;;;;;;5026495;28;20194;-78
2024/01/14 05:39:48;;;;;;;52.23;21.57;;;;;;;;;;5026900;28;20202;-78
2024/01/14 05:42:14;;;;;;;46.80;21.73;;;;;;;;;;5025878;28;20190;-78
2024/01/14 05:44:40;;;;;;;53.73;24.90;;;;;;;;;;5023944;28;20219;-79
2024/01/14 05:47:07;;;;;;;49.63;21.53;;;;;;;;;;4978729;28;20190;-78
2024/01/14 05:49:33;;;;;;;56.33;24.10;;;;;;;;;;5011959;28;20191;-78
2024/01/14 05:51:59;;;;;;;48.77;23.37;;;;;;;;;;5008000;28;20616;-79
2024/01/14 05:54:25;;;;;;;51.33;22.63;;;;;;;;;;5029344;28;20518;-78
2024/01/14 05:56:51;;;;;;;60.57;24.67;;;;;;;;;;5028604;28;20623;-78
2024/01/14 05:59:17;;;;;;;49.67;22.53;;;;;;;;;;5011115;28;20690;-78
2024/01/14 06:01:44;;;;;;;51.87;22.87;;;;;;;;;;5023378;28;20448;-78
2024/01/14 06:04:10;;;;;;;50.87;21.83;;;;;;;;;;5028909;28;21034;-78
2024/01/14 06:06:36;;;;;;;52.13;21.67;;;;;;;;;;5028112;28;20190;-81
2024/01/14 06:09:02;;;;;;;52.73;22.77;;;;;;;;;;5027946;28;20202;-78
2024/01/14 06:11:29;;;;;;;52.23;21.90;;;;;;;;;;5029159;28;20439;-78
2024/01/14 06:13:55;;;;;;;54.43;23.10;;;;;;;;;;5024567;28;20202;-79
2024/01/14 06:16:21;;;;;;;49.67;22.83;;;;;;;;;;5022639;28;20455;-78
2024/01/14 06:18:47;;;;;;;52.90;22.67;;;;;;;;;;5026123;28;20221;-78
2024/01/14 06:21:13;;;;;;;50.63;22.23;;;;;;;;;;5014179;28;20198;-79
2024/01/14 06:23:40;;;;;;;51.67;23.00;;;;;;;;;;5027250;28;20202;-78
2024/01/14 06:26:06;;;;;;;53.63;23.20;;;;;;;;;;5009839;28;20282;-78
2024/01/14 06:28:32;;;;;;;51.13;21.80;;;;;;;;;;5023173;28;20186;-79
2024/01/14 06:30:58;;;;;;;54.53;21.77;;;;;;;;;;5022924;28;20194;-79
2024/01/14 06:33:24;;;;;;;54.10;22.83;;;;;;;;;;5024907;28;20210;-79
2024/01/14 06:35:51;;;;;;;50.03;22.00;;;;;;;;;;5026893;28;20286;-79
2024/01/14 06:38:17;;;;;;;57.20;22.90;;;;;;;;;;5019999;28;20311;-79
2024/01/14 06:40:43;;;;;;;53.33;22.97;;;;;;;;;;5028894;28;20412;-80
2024/01/14 06:43:09;;;;;;;49.83;21.40;;;;;;;;;;5006386;28;20203;-79
2024/01/14 06:45:35;;;;;;;48.87;21.40;;;;;;;;;;5028608;28;20548;-79
2024/01/14 06:48:02;;;;;;;51.80;22.33;;;;;;;;;;5027188;28;20594;-79
2024/01/14 06:50:28;;;;;;;48.97;21.77;;;;;;;;;;5028502;28;20187;-79
2024/01/14 06:52:54;;;;;;;51.40;22.00;;;;;;;;;;5026832;28;20179;-79
2024/01/14 06:55:21;;;;;;;55.27;22.43;;;;;;;;;;5026417;28;20434;-79
2024/01/14 06:57:47;;;;;;;48.13;21.43;;;;;;;;;;5024819;28;20310;-79
2024/01/14 07:00:13;;;;;;;53.03;22.07;;;;;;;;;;5025423;28;20786;-78
2024/01/14 07:02:40;;;;;;;50.80;21.50;;;;;;;;;;5023992;28;20190;-79
2024/01/14 07:05:08;;;;;;;46.90;21.37;;;;;;;;;;5011398;28;20206;-79
2024/01/14 07:07:34;;;;;;;50.30;21.07;;;;;;;;;;5027991;28;20201;-79
2024/01/14 07:10:00;;;;;;;48.93;21.33;;;;;;;;;;5007789;28;20226;-79
2024/01/14 07:12:27;;;;;;;52.33;21.20;;;;;;;;;;5027903;28;20198;-78
2024/01/14 07:14:53;;;;;;;50.67;21.73;;;;;;;;;;5022634;28;20245;-79
2024/01/14 07:17:19;;;;;;;47.27;21.33;;;;;;;;;;5019140;28;20254;-79
2024/01/14 07:19:45;;;;;;;47.00;20.53;;;;;;;;;;5019048;28;20210;-78
2024/01/14 07:22:11;;;;;;;47.67;20.23;;;;;;;;;;4977331;28;20210;-75
2024/01/14 07:24:37;;;;;;;47.83;20.37;;;;;;;;;;5027630;28;20468;-77
2024/01/14 07:27:04;;;;;;;49.67;21.00;;;;;;;;;;5025813;28;20214;-78
2024/01/14 07:29:30;;;;;;;44.57;19.93;;;;;;;;;;5029331;28;20433;-78
2024/01/14 07:31:56;;;;;;;51.67;20.83;;;;;;;;;;5028786;28;20274;-78
2024/01/14 07:34:23;;;;;;;49.43;20.67;;;;;;;;;;5008811;28;20207;-78
2024/01/14 07:36:49;;;;;;;48.03;21.93;;;;;;;;;;5027229;28;20248;-77
2024/01/14 07:39:16;;;;;;;48.30;20.40;;;;;;;;;;5004858;28;20698;-78
2024/01/14 07:41:42;;;;;;;48.67;21.07;;;;;;;;;;5026431;28;20178;-78
2024/01/14 07:44:13;;;;;;;46.90;20.70;;;;;;;;;;5006218;28;20206;-78
2024/01/14 07:46:39;;;;;;;45.27;20.47;;;;;;;;;;5008948;28;20433;-78
2024/01/14 07:49:05;;;;;;;49.33;21.53;;;;;;;;;;5024690;28;20282;-79
2024/01/14 07:51:31;;;;;;;42.33;19.63;;;;;;;;;;5028198;28;20432;-78
2024/01/14 07:53:57;;;;;;;46.87;20.57;;;;;;;;;;5021233;28;20671;-79
2024/01/14 07:56:23;;;;;;;46.53;20.60;;;;;;;;;;5017650;28;20274;-78
2024/01/14 07:58:50;;;;;;;42.03;19.00;;;;;;;;;;5026134;28;20760;-78
2024/01/14 08:01:17;;;;;;;45.90;19.33;;;;;;;;;;5025237;28;20632;-78
2024/01/14 08:03:44;;;;;;;46.03;20.40;;;;;;;;;;5024808;28;20202;-78
2024/01/14 08:06:10;;;;;;;43.13;18.90;;;;;;;;;;5010213;28;20561;-78
2024/01/14 08:08:36;;;;;;;43.57;19.43;;;;;;;;;;5027400;28;20194;-78
2024/01/14 08:11:02;;;;;;;47.93;20.20;;;;;;;;;;5020261;28;20738;-78
2024/01/14 08:13:28;;;;;;;46.50;19.90;;;;;;;;;;5019401;28;20199;-78
2024/01/14 08:15:55;;;;;;;43.77;19.27;;;;;;;;;;5027070;28;20642;-80
2024/01/14 08:18:21;;;;;;;43.80;19.97;;;;;;;;;;5025951;28;20207;-79
2024/01/14 08:20:48;;;;;;;43.87;19.57;;;;;;;;;;5010630;28;20224;-79
2024/01/14 08:23:14;;;;;;;47.07;19.00;;;;;;;;;;5027201;28;20252;-78
2024/01/14 08:25:40;;;;;;;45.87;19.53;;;;;;;;;;5025402;28;20433;-78
2024/01/14 08:28:06;;;;;;;40.73;19.00;;;;;;;;;;5024483;28;20182;-78
2024/01/14 08:30:32;;;;;;;42.10;19.10;;;;;;;;;;5001670;28;20187;-78
2024/01/14 08:33:00;;;;;;;44.47;19.83;;;;;;;;;;4999937;28;20174;-78
2024/01/14 08:35:26;;;;;;;46.87;20.63;;;;;;;;;;5021743;28;20202;-78
2024/01/14 08:37:52;;;;;;;42.07;18.50;;;;;;;;;;5022359;28;20189;-80
2024/01/14 08:40:18;;;;;;;43.57;18.97;;;;;;;;;;5028196;28;20193;-78
2024/01/14 08:42:45;;;;;;;42.73;19.83;;;;;;;;;;5030522;28;20193;-77
2024/01/14 08:45:16;;;;;;;42.60;18.80;;;;;;;;;;5025334;28;20286;-78
2024/01/14 08:47:43;;;;;;;43.97;19.13;;;;;;;;;;5010624;28;20643;-80
2024/01/14 08:50:10;;;;;;;44.90;19.17;;;;;;;;;;5012502;28;20178;-78
2024/01/14 08:52:37;;;;;;;48.47;19.13;;;;;;;;;;5030109;28;20182;-78
2024/01/14 08:55:04;;;;;;;39.50;18.83;;;;;;;;;;5029963;28;20217;-77
2024/01/14 08:57:30;;;;;;;39.47;17.37;;;;;;;;;;5024821;28;20586;-76
2024/01/14 08:59:57;;;;;;;42.80;18.93;;;;;;;;;;5009354;28;20209;-80
2024/01/14 09:02:23;;;;;;;38.13;17.83;;;;;;;;;;5009009;28;20584;-75
2024/01/14 09:04:49;;;;;;;39.27;18.40;;;;;;;;;;5023367;28;20221;-79
2024/01/14 09:07:16;;;;;;;41.43;18.37;;;;;;;;;;5030771;28;20199;-79
2024/01/14 09:09:42;;;;;;;36.03;17.40;;;;;;;;;;5007112;28;20654;-78
2024/01/14 09:12:08;;;;;;;42.20;18.40;;;;;;;;;;5006230;28;20231;-79
2024/01/14 09:14:34;;;;;;;36.20;16.53;;;;;;;;;;5012756;28;20238;-79
2024/01/14 09:17:00;;;;;;;37.77;17.87;;;;;;;;;;5029342;28;20194;-80
2024/01/14 09:19:27;;;;;;;35.77;17.03;;;;;;;;;;5016199;28;20199;-78
2024/01/14 09:21:53;;;;;;;37.03;17.67;;;;;;;;;;5024511;28;20187;-79
2024/01/14 09:24:19;;;;;;;34.77;17.10;;;;;;;;;;5029200;28;20210;-79
2024/01/14 09:26:45;;;;;;;36.33;17.57;;;;;;;;;;5027421;28;20178;-82
2024/01/14 09:29:11;;;;;;;35.83;18.00;;;;;;;;;;5022324;28;20244;-78
2024/01/14 09:31:38;;;;;;;36.67;17.17;;;;;;;;;;5006859;28;20411;-78
2024/01/14 09:34:04;;;;;;;37.90;18.20;;;;;;;;;;5027090;28;20303;-78
2024/01/14 09:36:32;;;;;;;41.60;19.37;;;;;;;;;;5013744;28;20745;-79
2024/01/14 09:38:58;;;;;;;41.73;17.53;;;;;;;;;;5003791;28;20221;-78
2024/01/14 09:41:25;;;;;;;39.03;17.40;;;;;;;;;;5006735;28;20192;-77
2024/01/14 09:43:51;;;;;;;41.57;18.60;;;;;;;;;;5030433;28;20199;-78
2024/01/14 09:46:18;;;;;;;38.80;18.40;;;;;;;;;;5013736;28;20377;-78
2024/01/14 09:48:45;;;;;;;39.33;17.53;;;;;;;;;;5012467;28;20191;-78
2024/01/14 09:51:11;;;;;;;46.83;20.10;;;;;;;;;;5012109;28;20200;-78
2024/01/14 09:53:37;;;;;;;47.53;19.73;;;;;;;;;;5031524;28;20202;-78
2024/01/14 09:56:07;;;;;;;44.03;18.63;;;;;;;;;;5025811;28;20179;-78
2024/01/14 09:58:34;;;;;;;45.87;19.47;;;;;;;;;;5019042;28;20210;-78
2024/01/14 10:01:02;;;;;;;38.80;18.50;;;;;;;;;;5024763;28;20209;-79
2024/01/14 10:03:28;;;;;;;42.63;18.10;;;;;;;;;;5030483;28;20285;-78
2024/01/14 10:05:54;;;;;;;48.13;19.47;;;;;;;;;;5031744;28;20226;-78
2024/01/14 10:08:21;;;;;;;46.87;19.27;;;;;;;;;;5027439;28;20748;-78
2024/01/14 10:10:54;;;;;;;46.60;19.70;;;;;;;;;;5008029;28;20194;-79
2024/01/14 10:13:22;;;;;;;43.77;19.47;;;;;;;;;;5027305;28;20228;-79
2024/01/14 10:15:49;;;;;;;47.10;20.37;;;;;;;;;;5009096;28;20199;-79
2024/01/14 10:18:16;;;;;;;48.10;18.50;;;;;;;;;;5028931;28;20219;-79
2024/01/14 10:20:42;;;;;;;46.47;19.87;;;;;;;;;;5014127;28;20175;-79
2024/01/14 10:23:08;;;;;;;47.70;20.30;;;;;;;;;;5031085;28;20395;-79
2024/01/14 10:25:34;;;;;;;44.90;18.93;;;;;;;;;;5030911;28;20557;-78
2024/01/14 10:28:07;;;;;;;47.47;19.80;;;;;;;;;;5028351;28;20236;-79
2024/01/14 10:30:34;;;;;;;48.30;19.67;;;;;;;;;;5006441;28;20202;-79
2024/01/14 10:33:01;;;;;;;49.60;20.80;;;;;;;;;;5030783;28;20187;-78
2024/01/14 10:35:28;;;;;;;48.57;19.30;;;;;;;;;;5025581;28;20191;-77
2024/01/14 10:37:54;;;;;;;43.77;19.07;;;;;;;;;;5022585;28;20248;-76
2024/01/14 10:40:20;;;;;;;46.93;19.80;;;;;;;;;;5021040;28;20266;-79
2024/01/14 10:42:46;;;;;;;46.33;19.53;;;;;;;;;;5023273;28;20194;-77
2024/01/14 10:45:13;;;;;;;45.07;19.33;;;;;;;;;;5030159;28;20662;-79
2024/01/14 10:47:42;;;;;;;44.40;19.50;;;;;;;;;;5013126;28;20277;-77
2024/01/14 10:50:11;;;;;;;45.03;20.77;;;;;;;;;;5029257;28;20286;-77
2024/01/14 10:52:39;;;;;;;48.17;21.27;;;;;;;;;;5026455;28;20732;-79
2024/01/14 10:55:10;;;;;;;47.17;20.20;;;;;;;;;;5027261;28;20571;-78
2024/01/14 10:57:37;;;;;;;46.10;19.90;;;;;;;;;;5022145;28;20194;-77
2024/01/14 11:00:05;;;;;;;46.63;20.57;;;;;;;;;;5026152;28;20211;-77
2024/01/14 11:02:32;;;;;;;46.73;19.97;;;;;;;;;;5028758;28;20183;-78
2024/01/14 11:04:59;;;;;;;53.73;21.87;;;;;;;;;;5029485;28;20209;-78
2024/01/14 11:07:25;;;;;;;49.53;21.57;;;;;;;;;;5025326;28;20194;-76
2024/01/14 11:09:52;;;;;;;45.40;20.43;;;;;;;;;;5025533;28;20202;-77
2024/01/14 11:12:28;;;;;;;47.20;20.83;;;;;;;;;;5008725;28;20191;-78
2024/01/14 11:15:00;;;;;;;50.07;20.17;;;;;;;;;;5018201;28;20714;-77
2024/01/14 11:17:38;;;;;;;47.07;20.10;;;;;;;;;;5023472;28;20189;-77
2024/01/14 11:20:05;;;;;;;46.40;20.43;;;;;;;;;;4969300;28;20290;-76
2024/01/14 11:22:31;;;;;;;49.03;20.63;;;;;;;;;;4974995;28;20561;-76
2024/01/14 11:24:58;;;;;;;47.43;20.20;;;;;;;;;;4962485;28;20209;-76
2024/01/14 11:27:24;;;;;;;47.07;19.33;;;;;;;;;;4997674;28;20274;-78
2024/01/14 11:29:50;;;;;;;47.93;20.13;;;;;;;;;;4991925;28;20191;-75
2024/01/14 11:32:20;;;;;;;45.77;19.47;;;;;;;;;;4972862;28;20799;-74
2024/01/14 11:34:47;;;;;;;45.03;20.60;;;;;;;;;;4974960;28;20206;-74
2024/01/14 11:37:34;;;;;;;44.13;19.43;;;;;;;;;;4973597;28;20578;-73
2024/01/14 11:40:06;;;;;;;41.97;18.50;;;;;;;;;;4974006;28;20222;-76
2024/01/14 11:42:36;;;;;;;44.50;19.87;;;;;;;;;;5018674;28;20182;-74
2024/01/14 11:45:02;;;;;;;50.30;20.40;;;;;;;;;;5022250;28;20278;-75
2024/01/14 11:47:38;;;;;;;44.43;18.90;;;;;;;;;;5022032;28;20193;-75
2024/01/14 11:50:05;;;;;;;48.43;20.10;;;;;;;;;;5018508;28;20600;-75
2024/01/14 11:52:31;;;;;;;49.23;20.23;;;;;;;;;;4964594;28;20193;-75
2024/01/14 11:54:57;;;;;;;46.13;19.80;;;;;;;;;;4980413;28;20650;-75
2024/01/14 11:57:24;;;;;;;52.27;21.07;;;;;;;;;;5003136;28;20523;-75
2024/01/14 11:59:51;;;;;;;47.43;20.27;;;;;;;;;;5004811;28;20304;-74
2024/01/14 12:02:17;;;;;;;46.00;20.67;;;;;;;;;;4979220;28;21207;-80
2024/01/14 12:04:43;;;;;;;48.23;20.63;;;;;;;;;;4968777;28;20234;-73
2024/01/14 12:07:09;;;;;;;48.37;19.93;;;;;;;;;;5022707;28;20189;-74
2024/01/14 12:09:35;;;;;;;46.77;19.77;;;;;;;;;;4998637;28;20563;-73
2024/01/14 12:12:06;;;;;;;46.10;20.43;;;;;;;;;;5018627;28;20190;-73
2024/01/14 12:14:37;;;;;;;45.27;20.30;;;;;;;;;;5020604;28;20210;-73
2024/01/14 12:17:09;;;;;;;50.03;21.23;;;;;;;;;;5018898;28;20190;-77
2024/01/14 12:19:36;;;;;;;46.97;20.60;;;;;;;;;;5007161;28;20212;-74
2024/01/14 12:22:02;;;;;;;48.53;20.77;;;;;;;;;;4952285;28;20187;-75
2024/01/14 12:24:31;;;;;;;53.00;20.43;;;;;;;;;;4978180;28;20489;-74
2024/01/14 12:27:01;;;;;;;50.27;21.63;;;;;;;;;;5020909;28;20210;-74
2024/01/14 12:29:30;;;;;;;48.40;20.77;;;;;;;;;;4970600;28;20182;-75
2024/01/14 12:31:56;;;;;;;48.00;21.33;;;;;;;;;;4972648;28;20197;-75
2024/01/14 12:34:23;;;;;;;49.43;20.57;;;;;;;;;;4970735;28;20203;-74
2024/01/14 12:36:49;;;;;;;51.90;22.13;;;;;;;;;;4974150;28;20221;-74
2024/01/14 12:39:17;;;;;;;49.47;21.17;;;;;;;;;;5021076;28;20701;-75
2024/01/14 12:41:43;;;;;;;49.93;21.70;;;;;;;;;;4973633;28;20570;-74
2024/01/14 12:44:09;;;;;;;47.03;20.33;;;;;;;;;;4960999;28;20194;-74
2024/01/14 12:46:35;;;;;;;53.57;22.10;;;;;;;;;;4964356;28;20188;-74
2024/01/14 12:49:10;;;;;;;49.13;20.50;;;;;;;;;;4968632;28;20244;-74
2024/01/14 12:51:37;;;;;;;49.70;21.47;;;;;;;;;;4970011;28;20629;-74
2024/01/14 12:54:03;;;;;;;43.27;19.83;;;;;;;;;;5025059;28;20757;-74
2024/01/14 12:56:29;;;;;;;51.17;20.90;;;;;;;;;;4968138;28;20183;-77
2024/01/14 12:58:55;;;;;;;47.37;20.93;;;;;;;;;;4968214;28;20210;-75
2024/01/14 13:01:22;;;;;;;48.73;20.20;;;;;;;;;;4957300;28;20202;-78
2024/01/14 13:03:48;;;;;;;51.63;20.77;;;;;;;;;;4967256;28;20595;-76
2024/01/14 13:06:15;;;;;;;48.30;21.40;;;;;;;;;;5023018;28;20186;-82
2024/01/14 13:08:41;;;;;;;46.17;20.13;;;;;;;;;;4943287;28;20209;-80
2024/01/14 13:11:07;;;;;;;45.57;19.80;;;;;;;;;;4968551;28;20271;-76
2024/01/14 13:13:37;;;;;;;49.90;20.83;;;;;;;;;;4970039;28;20229;-78
2024/01/14 13:16:03;;;;;;;49.30;21.00;;;;;;;;;;4949328;28;20650;-77
2024/01/14 13:18:30;;;;;;;51.23;20.93;;;;;;;;;;4961307;28;20555;-80
2024/01/14 13:20:57;;;;;;;47.00;19.97;;;;;;;;;;5024390;28;20185;-79
2024/01/14 13:23:23;;;;;;;47.43;19.07;;;;;;;;;;4963226;28;20683;-78
2024/01/14 13:25:49;;;;;;;44.57;20.33;;;;;;;;;;4967861;28;20206;-79
2024/01/14 13:28:21;;;;;;;49.33;21.43;;;;;;;;;;4955686;28;20202;-81
2024/01/14 13:30:48;;;;;;;45.33;19.27;;;;;;;;;;4966772;28;21041;-80
2024/01/14 13:33:15;;;;;;;45.30;19.87;;;;;;;;;;5010804;28;20309;-80
2024/01/14 13:35:41;;;;;;;45.53;19.43;;;;;;;;;;4972797;28;20877;-81
2024/01/14 13:38:08;;;;;;;43.13;18.77;;;;;;;;;;4953094;28;20191;-80
2024/01/14 13:40:34;;;;;;;45.23;20.97;;;;;;;;;;4962041;28;20190;-80
2024/01/14 13:43:02;;;;;;;44.97;19.87;;;;;;;;;;4968977;28;20182;-80
2024/01/14 13:45:31;;;;;;;43.77;19.43;;;;;;;;;;4999322;28;20189;-82
2024/01/14 13:47:58;;;;;;;43.73;20.03;;;;;;;;;;5024134;28;20187;-80
2024/01/14 13:50:25;;;;;;;53.70;23.90;;;;;;;;;;4986262;28;20604;-80
2024/01/14 13:52:52;;;;;;;52.67;21.77;;;;;;;;;;4994103;28;20186;-79
2024/01/14 13:55:18;;;;;;;50.50;22.03;;;;;;;;;;4992996;28;20217;-77
2024/01/14 13:57:44;;;;;;;50.30;21.90;;;;;;;;;;4993780;28;21416;-80
2024/01/14 14:00:11;;;;;;;43.90;19.77;;;;;;;;;;5027792;28;20552;-79
2024/01/14 14:02:38;;;;;;;50.07;21.13;;;;;;;;;;4994650;28;20183;-79
2024/01/14 14:05:04;;;;;;;44.60;19.90;;;;;;;;;;4994938;28;20229;-79
2024/01/14 14:07:30;;;;;;;53.17;21.87;;;;;;;;;;4996459;28;20210;-80
2024/01/14 14:09:57;;;;;;;49.33;21.33;;;;;;;;;;4997849;28;20191;-80
2024/01/14 14:12:23;;;;;;;47.33;20.67;;;;;;;;;;5018181;28;20201;-83